createdAt,value
2023-03-13T00:00:50.438Z,73.33
2023-03-13T00:01:58.997Z,73.72
2023-03-13T00:03:01.227Z,73.96
2023-03-13T00:04:03.832Z,73.89
2023-03-13T00:05:06.374Z,73.74
2023-03-13T00:06:09.357Z,73.51
2023-03-13T00:07:11.869Z,73.12
2023-03-13T00:08:14.373Z,72.71
2023-03-13T00:09:17.439Z,72.72
2023-03-13T00:10:19.687Z,72.91
2023-03-13T00:11:21.930Z,72.70
2023-03-13T00:12:24.170Z,72.27
2023-03-13T00:13:26.379Z,72.21
2023-03-13T00:14:28.812Z,71.88
2023-03-13T00:15:31.399Z,71.82
2023-03-13T00:16:59.461Z,72.17
2023-03-13T00:18:01.748Z,72.14
2023-03-13T00:19:05.746Z,72.07
2023-03-13T00:20:09.135Z,72.34
2023-03-13T00:21:11.302Z,72.07
2023-03-13T00:22:13.771Z,72.43
2023-03-13T00:23:15.982Z,72.46
2023-03-13T00:24:18.250Z,72.36
2023-03-13T00:25:20.468Z,72.46
2023-03-13T00:26:25.194Z,72.33
2023-03-13T00:27:27.672Z,72.34
2023-03-13T00:28:32.747Z,72.29
2023-03-13T00:29:35.334Z,72.27
2023-03-13T00:30:37.749Z,72.43
2023-03-13T00:31:40.036Z,72.30
2023-03-13T00:32:46.809Z,72.43
2023-03-13T00:33:52.129Z,72.44
2023-03-13T00:34:54.484Z,72.46
2023-03-13T00:36:01.209Z,72.34
2023-03-13T00:37:03.619Z,72.18
2023-03-13T00:38:05.820Z,72.00
2023-03-13T00:39:08.016Z,72.26
2023-03-13T00:40:11.048Z,72.50
2023-03-13T00:41:18.357Z,72.75
2023-03-13T00:42:22.471Z,73.04
2023-03-13T00:43:24.685Z,72.53
2023-03-13T00:44:26.899Z,71.86
2023-03-13T00:45:29.128Z,72.15
2023-03-13T00:46:31.777Z,72.36
2023-03-13T00:47:34.416Z,72.49
2023-03-13T00:48:37.477Z,71.95
2023-03-13T00:49:39.726Z,71.73
2023-03-13T00:50:43.069Z,71.59
2023-03-13T00:51:45.285Z,72.10
2023-03-13T00:52:47.776Z,72.38
2023-03-13T00:53:50.146Z,72.49
2023-03-13T00:54:52.416Z,72.43
2023-03-13T00:55:57.537Z,72.22
2023-03-13T00:56:59.749Z,71.74
2023-03-13T00:58:02.023Z,71.32
2023-03-13T00:59:04.364Z,71.58
2023-03-13T01:00:31.136Z,71.80
2023-03-13T01:01:35.867Z,72.06
2023-03-13T01:02:43.239Z,72.27
2023-03-13T01:03:49.432Z,72.80
2023-03-13T01:04:53.977Z,72.99
2023-03-13T01:06:00.147Z,72.81
2023-03-13T01:07:02.341Z,72.71
2023-03-13T01:08:04.912Z,72.70
2023-03-13T01:09:08.105Z,72.71
2023-03-13T01:10:10.802Z,73.02
2023-03-13T01:11:16.319Z,73.08
2023-03-13T01:12:18.499Z,73.40
2023-03-13T01:13:21.068Z,73.76
2023-03-13T01:14:23.247Z,73.62
2023-03-13T01:15:25.733Z,73.36
2023-03-13T01:16:30.380Z,73.02
2023-03-13T01:17:32.596Z,73.16
2023-03-13T01:18:36.445Z,73.35
2023-03-13T01:19:38.648Z,73.09
2023-03-13T01:20:41.325Z,72.70
2023-03-13T01:21:45.325Z,72.88
2023-03-13T01:22:47.573Z,72.97
2023-03-13T01:23:50.963Z,73.11
2023-03-13T01:24:53.970Z,73.41
2023-03-13T01:25:56.615Z,73.47
2023-03-13T01:26:58.841Z,73.21
2023-03-13T01:28:01.260Z,73.01
2023-03-13T01:29:04.203Z,72.91
2023-03-13T01:30:07.171Z,72.98
2023-03-13T01:31:19.829Z,72.97
2023-03-13T01:32:22.150Z,73.09
2023-03-13T01:33:24.626Z,73.40
2023-03-13T01:34:26.805Z,73.32
2023-03-13T01:35:29.082Z,73.34
2023-03-13T01:36:32.396Z,73.39
2023-03-13T01:38:00.220Z,73.21
2023-03-13T01:39:02.433Z,72.93
2023-03-13T01:40:05.065Z,73.05
2023-03-13T01:41:09.283Z,73.19
2023-03-13T01:42:11.653Z,73.08
2023-03-13T01:43:27.656Z,72.92
2023-03-13T01:44:52.234Z,73.01
2023-03-13T01:46:03.384Z,73.04
2023-03-13T01:47:13.667Z,72.97
2023-03-13T01:49:01.250Z,73.05
2023-03-13T01:50:06.768Z,73.08
2023-03-13T01:51:39.943Z,73.23
2023-03-13T01:52:42.366Z,72.89
2023-03-13T01:54:22.248Z,73.08
2023-03-13T01:55:25.917Z,72.97
2023-03-13T01:56:45.197Z,73.14
2023-03-13T01:57:51.858Z,73.50
2023-03-13T01:58:58.185Z,73.04
2023-03-13T02:00:08.192Z,73.17
2023-03-13T02:01:18.386Z,73.34
2023-03-13T02:02:22.679Z,73.44
2023-03-13T02:03:27.776Z,73.42
2023-03-13T02:04:36.552Z,73.75
2023-03-13T02:05:39.895Z,73.45
2023-03-13T02:06:47.672Z,73.47
2023-03-13T02:07:58.940Z,73.24
2023-03-13T02:09:08.499Z,73.13
2023-03-13T02:10:12.222Z,73.20
2023-03-13T02:11:28.990Z,73.25
2023-03-13T02:12:36.355Z,73.20
2023-03-13T02:13:38.545Z,73.39
2023-03-13T02:14:44.915Z,73.61
2023-03-13T02:15:48.436Z,73.57
2023-03-13T02:16:53.665Z,73.35
2023-03-13T02:17:56.536Z,73.34
2023-03-13T02:19:01.899Z,73.42
2023-03-13T02:20:05.158Z,73.49
2023-03-13T02:21:21.004Z,73.70
2023-03-13T02:22:51.539Z,73.60
2023-03-13T02:24:13.971Z,73.48
2023-03-13T02:25:25.237Z,73.38
2023-03-13T02:26:31.662Z,73.60
2023-03-13T02:27:34.345Z,73.55
2023-03-13T02:28:39.405Z,73.66
2023-03-13T02:29:45.889Z,73.67
2023-03-13T02:30:50.918Z,73.62
2023-03-13T02:31:53.818Z,73.67
2023-03-13T02:32:56.506Z,73.50
2023-03-13T02:34:02.227Z,73.30
2023-03-13T02:35:10.045Z,73.56
2023-03-13T02:36:14.767Z,73.80
2023-03-13T02:37:18.346Z,73.72
2023-03-13T02:38:25.450Z,73.57
2023-03-13T02:39:29.271Z,73.64
2023-03-13T02:40:37.211Z,73.64
2023-03-13T02:41:42.881Z,73.83
2023-03-13T02:42:46.673Z,73.30
2023-03-13T02:43:49.079Z,73.22
2023-03-13T02:44:52.506Z,73.12
2023-03-13T02:46:24.186Z,73.16
2023-03-13T02:47:28.964Z,73.16
2023-03-13T02:48:39.473Z,73.18
2023-03-13T02:49:41.667Z,73.68
2023-03-13T02:50:44.054Z,73.65
2023-03-13T02:51:46.884Z,73.72
2023-03-13T02:53:03.653Z,73.75
2023-03-13T02:54:10.664Z,73.68
2023-03-13T02:55:22.405Z,73.93
2023-03-13T02:56:27.157Z,74.16
2023-03-13T02:57:31.954Z,74.10
2023-03-13T02:58:49.774Z,74.04
2023-03-13T02:59:54.966Z,74.09
2023-03-13T03:00:57.819Z,74.03
2023-03-13T03:02:00.515Z,73.80
2023-03-13T03:03:02.712Z,73.85
2023-03-13T03:04:05.101Z,74.06
2023-03-13T03:05:07.582Z,73.89
2023-03-13T03:06:09.884Z,73.80
2023-03-13T03:07:12.784Z,74.13
2023-03-13T03:08:15.042Z,74.28
2023-03-13T03:09:18.743Z,74.41
2023-03-13T03:10:21.162Z,74.38
2023-03-13T03:11:41.810Z,74.27
2023-03-13T03:12:48.037Z,73.93
2023-03-13T03:13:50.715Z,73.69
2023-03-13T03:14:53.328Z,73.42
2023-03-13T03:15:56.259Z,73.49
2023-03-13T03:16:58.507Z,73.43
2023-03-13T03:18:02.121Z,73.59
2023-03-13T03:19:06.413Z,73.86
2023-03-13T03:20:12.227Z,73.81
2023-03-13T03:21:17.948Z,73.85
2023-03-13T03:22:20.136Z,73.49
2023-03-13T03:23:22.367Z,73.75
2023-03-13T03:24:24.628Z,73.89
2023-03-13T03:25:26.818Z,73.39
2023-03-13T03:26:29.870Z,73.71
2023-03-13T03:27:32.509Z,73.49
2023-03-13T03:28:35.216Z,73.46
2023-03-13T03:29:41.394Z,73.20
2023-03-13T03:30:44.367Z,73.17
2023-03-13T03:31:46.636Z,73.28
2023-03-13T03:32:49.533Z,73.25
2023-03-13T03:33:51.841Z,73.14
2023-03-13T03:34:55.237Z,73.53
2023-03-13T03:36:03.435Z,73.44
2023-03-13T03:37:06.040Z,73.35
2023-03-13T03:38:08.268Z,73.51
2023-03-13T03:39:11.117Z,73.34
2023-03-13T03:40:13.749Z,73.07
2023-03-13T03:41:16.485Z,72.84
2023-03-13T03:42:19.036Z,72.80
2023-03-13T03:43:21.474Z,72.64
2023-03-13T03:44:23.793Z,72.60
2023-03-13T03:45:31.123Z,72.44
2023-03-13T03:46:33.434Z,72.50
2023-03-13T03:47:35.739Z,72.41
2023-03-13T03:48:38.187Z,72.28
2023-03-13T03:49:42.436Z,72.31
2023-03-13T03:50:46.966Z,72.22
2023-03-13T03:51:50.552Z,72.08
2023-03-13T03:52:57.808Z,72.11
2023-03-13T03:54:02.394Z,72.16
2023-03-13T03:55:07.346Z,71.92
2023-03-13T03:56:09.687Z,71.37
2023-03-13T03:57:16.965Z,71.46
2023-03-13T03:58:20.881Z,71.46
2023-03-13T03:59:55.081Z,71.39
2023-03-13T04:00:59.094Z,71.70
2023-03-13T04:02:02.014Z,71.66
2023-03-13T04:03:05.562Z,71.70
2023-03-13T04:04:07.967Z,71.17
2023-03-13T04:05:10.989Z,71.22
2023-03-13T04:06:14.880Z,71.36
2023-03-13T04:07:18.038Z,71.05
2023-03-13T04:08:20.253Z,71.13
2023-03-13T04:09:22.915Z,70.91
2023-03-13T04:10:25.352Z,71.09
2023-03-13T04:11:27.749Z,71.22
2023-03-13T04:12:31.175Z,71.11
2023-03-13T04:13:33.797Z,71.30
2023-03-13T04:14:36.244Z,71.30
2023-03-13T04:15:43.419Z,71.19
2023-03-13T04:16:46.712Z,71.09
2023-03-13T04:17:51.181Z,71.29
2023-03-13T04:18:55.943Z,71.29
2023-03-13T04:20:01.275Z,71.01
2023-03-13T04:21:06.507Z,70.70
2023-03-13T04:22:34.662Z,70.65
2023-03-13T04:23:37.729Z,70.49
2023-03-13T04:24:40.170Z,70.63
2023-03-13T04:25:43.504Z,70.43
2023-03-13T04:26:47.532Z,70.20
2023-03-13T04:27:50.938Z,70.17
2023-03-13T04:28:55.921Z,70.54
2023-03-13T04:30:14.206Z,70.39
2023-03-13T04:31:36.673Z,70.59
2023-03-13T04:32:59.221Z,70.85
2023-03-13T04:34:16.876Z,70.69
2023-03-13T04:35:37.754Z,70.62
2023-03-13T04:36:39.902Z,70.35
2023-03-13T04:38:01.238Z,70.51
2023-03-13T04:39:28.332Z,70.71
2023-03-13T04:40:49.446Z,70.59
2023-03-13T04:42:12.207Z,70.71
2023-03-13T04:43:41.070Z,70.40
2023-03-13T04:44:51.051Z,70.48
2023-03-13T04:46:07.705Z,70.52
2023-03-13T04:47:42.859Z,70.94
2023-03-13T04:49:08.975Z,70.63
2023-03-13T04:50:27.228Z,70.64
2023-03-13T04:51:45.291Z,70.70
2023-03-13T04:53:05.963Z,70.71
2023-03-13T04:54:25.728Z,70.40
2023-03-13T04:56:06.839Z,70.41
2023-03-13T04:57:34.935Z,70.27
2023-03-13T04:59:00.021Z,70.41
2023-03-13T05:00:21.404Z,70.41
2023-03-13T05:01:45.852Z,70.27
2023-03-13T05:03:05.810Z,70.41
2023-03-13T05:04:21.363Z,70.76
2023-03-13T05:05:40.009Z,70.66
2023-03-13T05:07:11.068Z,70.46
2023-03-13T05:08:51.722Z,70.39
2023-03-13T05:10:05.153Z,70.46
2023-03-13T05:11:34.038Z,70.32
2023-03-13T05:13:09.030Z,70.13
2023-03-13T05:14:46.326Z,70.04
2023-03-13T05:16:07.560Z,70.05
2023-03-13T05:17:32.749Z,70.21
2023-03-13T05:18:57.521Z,69.96
2023-03-13T05:20:15.062Z,69.64
2023-03-13T05:21:26.187Z,69.76
2023-03-13T05:22:46.879Z,69.99
2023-03-13T05:23:55.021Z,69.84
2023-03-13T05:25:20.356Z,69.53
2023-03-13T05:26:28.377Z,69.63
2023-03-13T05:27:53.819Z,69.92
2023-03-13T05:29:16.395Z,69.37
2023-03-13T05:30:47.822Z,69.15
2023-03-13T05:32:08.542Z,69.35
2023-03-13T05:33:23.967Z,69.49
2023-03-13T05:34:44.712Z,69.14
2023-03-13T05:36:19.257Z,68.98
2023-03-13T05:37:40.871Z,69.08
2023-03-13T05:39:02.895Z,68.85
2023-03-13T05:40:23.356Z,68.88
2023-03-13T05:41:42.113Z,69.11
2023-03-13T05:43:07.512Z,68.82
2023-03-13T05:44:40.650Z,69.05
2023-03-13T05:46:00.491Z,68.73
2023-03-13T05:47:35.930Z,68.77
2023-03-13T05:48:56.765Z,68.95
2023-03-13T05:50:19.179Z,68.48
2023-03-13T05:51:39.780Z,68.60
2023-03-13T05:53:11.360Z,68.99
2023-03-13T05:54:27.464Z,68.86
2023-03-13T05:55:56.559Z,68.96
2023-03-13T05:57:17.020Z,69.46
2023-03-13T05:58:39.612Z,68.81
2023-03-13T05:59:50.560Z,68.64
2023-03-13T06:01:16.338Z,68.55
2023-03-13T06:02:30.389Z,68.43
2023-03-13T06:03:34.009Z,68.53
2023-03-13T06:04:36.659Z,68.51
2023-03-13T06:05:39.397Z,68.30
2023-03-13T06:06:51.493Z,68.49
2023-03-13T06:07:54.695Z,68.34
2023-03-13T06:08:56.943Z,68.10
2023-03-13T06:10:04.053Z,67.96
2023-03-13T06:11:06.745Z,67.70
2023-03-13T06:12:12.230Z,68.02
2023-03-13T06:13:20.171Z,68.15
2023-03-13T06:14:26.344Z,67.93
2023-03-13T06:15:55.205Z,67.91
2023-03-13T06:17:20.895Z,68.09
2023-03-13T06:18:24.934Z,67.71
2023-03-13T06:19:27.215Z,67.77
2023-03-13T06:20:29.402Z,67.58
2023-03-13T06:21:31.797Z,67.33
2023-03-13T06:22:34.079Z,67.73
2023-03-13T06:23:37.067Z,67.56
2023-03-13T06:24:39.357Z,67.65
2023-03-13T06:25:41.803Z,67.34
2023-03-13T06:26:44.464Z,67.21
2023-03-13T06:27:46.648Z,67.29
2023-03-13T06:28:52.378Z,67.39
2023-03-13T06:30:12.724Z,67.28
2023-03-13T06:31:15.150Z,67.10
2023-03-13T06:32:17.511Z,67.00
2023-03-13T06:33:20.190Z,67.08
2023-03-13T06:34:22.462Z,67.15
2023-03-13T06:35:24.914Z,66.77
2023-03-13T06:36:27.492Z,66.53
2023-03-13T06:37:29.807Z,66.45
2023-03-13T06:38:32.094Z,66.83
2023-03-13T06:39:34.412Z,66.68
2023-03-13T06:40:37.220Z,66.46
2023-03-13T06:41:39.593Z,66.54
2023-03-13T06:42:41.864Z,66.45
2023-03-13T06:43:44.503Z,66.42
2023-03-13T06:44:46.877Z,66.33
2023-03-13T06:45:49.132Z,66.55
2023-03-13T06:46:51.574Z,66.39
2023-03-13T06:47:53.825Z,66.43
2023-03-13T06:48:57.461Z,66.40
2023-03-13T06:49:59.692Z,66.22
2023-03-13T06:51:01.983Z,66.57
2023-03-13T06:52:04.263Z,66.54
2023-03-13T06:53:06.684Z,66.58
2023-03-13T06:54:09.080Z,66.44
2023-03-13T06:55:14.958Z,66.68
2023-03-13T06:56:17.202Z,66.73
2023-03-13T06:57:19.390Z,66.69
2023-03-13T06:58:32.134Z,66.67
2023-03-13T06:59:35.118Z,66.63
2023-03-13T07:00:40.059Z,66.69
2023-03-13T07:01:42.738Z,67.16
2023-03-13T07:02:44.923Z,67.46
2023-03-13T07:03:50.099Z,67.42
2023-03-13T07:04:52.341Z,67.25
2023-03-13T07:05:58.251Z,67.37
2023-03-13T07:07:00.652Z,67.53
2023-03-13T07:08:03.437Z,67.52
2023-03-13T07:09:05.664Z,67.60
2023-03-13T07:10:08.998Z,67.22
2023-03-13T07:11:13.578Z,67.53
2023-03-13T07:12:15.827Z,67.77
2023-03-13T07:13:19.967Z,67.71
2023-03-13T07:14:22.407Z,67.79
2023-03-13T07:15:24.715Z,67.69
2023-03-13T07:16:27.157Z,67.76
2023-03-13T07:17:29.645Z,67.77
2023-03-13T07:18:32.927Z,67.64
2023-03-13T07:19:35.251Z,68.03
2023-03-13T07:20:37.544Z,67.85
2023-03-13T07:21:39.823Z,67.97
2023-03-13T07:22:42.180Z,68.17
2023-03-13T07:23:44.606Z,68.17
2023-03-13T07:24:47.123Z,68.08
2023-03-13T07:25:57.135Z,68.51
2023-03-13T07:27:07.170Z,68.41
2023-03-13T07:28:10.138Z,68.28
2023-03-13T07:29:12.362Z,68.55
2023-03-13T07:30:14.784Z,68.69
2023-03-13T07:31:19.437Z,68.99
2023-03-13T07:32:22.237Z,68.43
2023-03-13T07:33:24.488Z,67.97
2023-03-13T07:34:26.752Z,68.52
2023-03-13T07:35:29.376Z,68.10
2023-03-13T07:36:31.739Z,67.84
2023-03-13T07:37:34.109Z,67.40
2023-03-13T07:38:36.986Z,67.33
2023-03-13T07:39:39.198Z,66.85
2023-03-13T07:40:48.874Z,66.58
2023-03-13T07:41:51.566Z,66.92
2023-03-13T07:42:53.810Z,66.53
2023-03-13T07:43:56.230Z,65.86
2023-03-13T07:44:58.648Z,65.24
2023-03-13T07:46:03.358Z,65.14
2023-03-13T07:47:06.433Z,65.53
2023-03-13T07:48:08.691Z,65.36
2023-03-13T07:49:10.887Z,65.76
2023-03-13T07:50:13.358Z,66.28
2023-03-13T07:51:30.285Z,66.05
2023-03-13T07:52:39.487Z,66.80
2023-03-13T07:53:41.807Z,66.94
2023-03-13T07:54:44.019Z,66.77
2023-03-13T07:55:56.978Z,66.74
2023-03-13T07:56:59.165Z,66.91
2023-03-13T07:58:01.354Z,67.46
2023-03-13T07:59:03.567Z,67.56
2023-03-13T08:00:10.442Z,67.02
2023-03-13T08:01:20.133Z,67.09
2023-03-13T08:02:22.430Z,67.44
2023-03-13T08:03:25.727Z,67.65
2023-03-13T08:04:27.948Z,67.48
2023-03-13T08:05:30.300Z,67.35
2023-03-13T08:06:37.055Z,67.88
2023-03-13T08:07:39.255Z,68.07
2023-03-13T08:08:41.640Z,68.22
2023-03-13T08:09:44.118Z,68.36
2023-03-13T08:10:47.008Z,68.48
2023-03-13T08:11:49.372Z,69.07
2023-03-13T08:12:51.835Z,69.50
2023-03-13T08:13:56.737Z,69.50
2023-03-13T08:14:58.980Z,70.08
2023-03-13T08:16:10.147Z,70.57
2023-03-13T08:17:12.606Z,71.22
2023-03-13T08:18:15.013Z,71.62
2023-03-13T08:19:17.225Z,71.71
2023-03-13T08:20:19.436Z,72.06
2023-03-13T08:21:42.024Z,71.98
2023-03-13T08:22:46.493Z,72.09
2023-03-13T08:23:48.857Z,71.87
2023-03-13T08:24:51.304Z,72.55
2023-03-13T08:25:53.557Z,72.62
2023-03-13T08:26:55.815Z,72.33
2023-03-13T08:27:58.002Z,72.17
2023-03-13T08:29:02.894Z,72.65
2023-03-13T08:30:06.053Z,73.01
2023-03-13T08:31:14.431Z,73.13
2023-03-13T08:32:18.262Z,73.20
2023-03-13T08:33:20.695Z,73.03
2023-03-13T08:34:23.188Z,73.74
2023-03-13T08:35:25.666Z,73.94
2023-03-13T08:36:32.287Z,74.12
2023-03-13T08:37:34.614Z,74.26
2023-03-13T08:38:37.790Z,74.52
2023-03-13T08:39:40.072Z,74.71
2023-03-13T08:40:42.340Z,74.73
2023-03-13T08:41:44.992Z,75.17
2023-03-13T08:42:47.260Z,75.60
2023-03-13T08:43:49.561Z,75.48
2023-03-13T08:44:51.753Z,76.05
2023-03-13T08:45:56.954Z,76.67
2023-03-13T08:47:00.045Z,77.10
2023-03-13T08:48:02.501Z,77.48
2023-03-13T08:49:07.361Z,77.45
2023-03-13T08:50:10.249Z,77.68
2023-03-13T08:51:15.755Z,77.83
2023-03-13T08:52:18.050Z,78.03
2023-03-13T08:53:20.462Z,78.00
2023-03-13T08:54:22.756Z,77.72
2023-03-13T08:55:26.535Z,77.90
2023-03-13T08:56:30.652Z,78.09
2023-03-13T08:57:32.838Z,77.89
2023-03-13T08:58:35.225Z,77.86
2023-03-13T08:59:37.404Z,78.18
2023-03-13T09:00:39.784Z,78.58
2023-03-13T09:01:42.605Z,78.92
2023-03-13T09:02:51.254Z,79.09
2023-03-13T09:03:53.594Z,78.82
2023-03-13T09:04:55.906Z,78.80
2023-03-13T09:05:59.740Z,79.16
2023-03-13T09:07:02.029Z,78.76
2023-03-13T09:08:04.348Z,78.78
2023-03-13T09:09:07.841Z,79.27
2023-03-13T09:10:10.649Z,79.40
2023-03-13T09:11:17.613Z,80.02
2023-03-13T09:12:30.469Z,80.32
2023-03-13T09:13:35.995Z,80.55
2023-03-13T09:15:41.480Z,81.42
2023-03-13T09:16:46.471Z,81.53
2023-03-13T09:17:48.893Z,82.23
2023-03-13T09:18:52.757Z,82.22
2023-03-13T09:20:00.457Z,82.10
2023-03-13T09:21:08.249Z,82.11
2023-03-13T09:22:10.510Z,82.05
2023-03-13T09:23:12.737Z,82.07
2023-03-13T09:24:15.803Z,81.80
2023-03-13T09:25:18.299Z,81.62
2023-03-13T09:26:23.203Z,81.82
2023-03-13T09:27:25.806Z,81.76
2023-03-13T09:28:28.501Z,82.16
2023-03-13T09:29:30.896Z,82.37
2023-03-13T09:30:33.168Z,82.19
2023-03-13T09:31:35.576Z,82.15
2023-03-13T09:32:38.085Z,82.24
2023-03-13T09:33:41.557Z,82.20
2023-03-13T09:34:44.248Z,82.25
2023-03-13T09:35:51.176Z,82.46
2023-03-13T09:36:53.799Z,83.02
2023-03-13T09:37:56.055Z,82.87
2023-03-13T09:39:00.564Z,82.69
2023-03-13T09:40:04.471Z,82.54
2023-03-13T09:41:27.898Z,82.60
2023-03-13T09:42:51.148Z,82.57
2023-03-13T09:44:12.159Z,82.66
2023-03-13T09:45:17.826Z,82.90
2023-03-13T09:46:53.704Z,82.39
2023-03-13T09:48:07.849Z,82.24
2023-03-13T09:49:38.992Z,81.76
2023-03-13T09:50:44.468Z,81.54
2023-03-13T09:51:53.360Z,81.32
2023-03-13T09:53:06.241Z,80.79
2023-03-13T09:54:25.859Z,80.77
2023-03-13T09:55:34.937Z,80.79
2023-03-13T09:56:50.482Z,80.94
2023-03-13T09:57:58.441Z,81.00
2023-03-13T09:59:16.752Z,80.93
2023-03-13T10:00:25.366Z,80.74
2023-03-13T10:01:31.872Z,80.56
2023-03-13T10:02:37.113Z,80.31
2023-03-13T10:03:48.585Z,80.18
2023-03-13T10:04:58.168Z,80.42
2023-03-13T10:06:05.919Z,80.35
2023-03-13T10:07:11.822Z,80.69
2023-03-13T10:08:23.527Z,80.39
2023-03-13T10:09:40.733Z,80.54
2023-03-13T10:10:55.636Z,80.49
2023-03-13T10:12:06.266Z,80.25
2023-03-13T10:13:43.921Z,80.06
2023-03-13T10:15:07.942Z,80.14
2023-03-13T10:16:34.911Z,80.28
2023-03-13T10:17:39.980Z,80.32
2023-03-13T10:18:51.164Z,79.84
2023-03-13T10:20:00.718Z,80.04
2023-03-13T10:21:16.440Z,80.01
2023-03-13T10:22:32.366Z,79.85
2023-03-13T10:23:47.012Z,79.89
2023-03-13T10:25:29.971Z,79.69
2023-03-13T10:26:35.116Z,79.26
2023-03-13T10:27:51.106Z,79.36
2023-03-13T10:28:54.530Z,79.08
2023-03-13T10:29:56.744Z,79.12
2023-03-13T10:31:16.749Z,78.79
2023-03-13T10:32:20.334Z,78.78
2023-03-13T10:33:28.200Z,78.93
2023-03-13T10:34:46.712Z,78.59
2023-03-13T10:36:10.708Z,78.69
2023-03-13T10:37:30.248Z,78.73
2023-03-13T10:38:54.906Z,78.52
2023-03-13T10:40:25.809Z,78.59
2023-03-13T10:41:30.421Z,78.65
2023-03-13T10:42:35.901Z,79.04
2023-03-13T10:43:51.869Z,78.89
2023-03-13T10:45:03.458Z,78.75
2023-03-13T10:46:06.344Z,78.62
2023-03-13T10:47:12.982Z,78.54
2023-03-13T10:48:21.051Z,78.26
2023-03-13T10:49:24.701Z,78.64
2023-03-13T10:50:28.356Z,78.33
2023-03-13T10:51:36.656Z,78.09
2023-03-13T10:52:45.089Z,78.07
2023-03-13T10:53:47.445Z,78.09
2023-03-13T10:54:49.839Z,78.16
2023-03-13T10:55:58.476Z,78.40
2023-03-13T10:57:18.991Z,77.80
2023-03-13T10:58:52.072Z,77.54
2023-03-13T10:59:54.897Z,77.38
2023-03-13T11:01:33.432Z,77.30
2023-03-13T11:02:38.743Z,77.49
2023-03-13T11:03:41.211Z,77.59
2023-03-13T11:04:44.665Z,77.48
2023-03-13T11:06:01.616Z,76.99
2023-03-13T11:07:14.014Z,77.39
2023-03-13T11:08:16.657Z,76.69
2023-03-13T11:09:19.606Z,76.53
2023-03-13T11:10:32.537Z,76.68
2023-03-13T11:11:45.723Z,77.07
2023-03-13T11:12:57.144Z,77.24
2023-03-13T11:14:13.507Z,77.37
2023-03-13T11:15:19.073Z,77.54
2023-03-13T11:16:31.449Z,77.48
2023-03-13T11:17:40.869Z,77.30
2023-03-13T11:19:04.632Z,77.03
2023-03-13T11:20:12.772Z,77.18
2023-03-13T11:21:24.739Z,77.03
2023-03-13T11:22:37.543Z,77.28
2023-03-13T11:23:47.861Z,77.58
2023-03-13T11:25:17.769Z,77.14
2023-03-13T11:26:26.416Z,77.15
2023-03-13T11:28:09.107Z,77.30
2023-03-13T11:29:24.801Z,77.50
2023-03-13T11:30:49.696Z,77.45
2023-03-13T11:31:59.048Z,77.35
2023-03-13T11:33:36.405Z,77.44
2023-03-13T11:34:50.822Z,77.46
2023-03-13T11:35:57.963Z,77.52
2023-03-13T11:37:02.555Z,77.38
2023-03-13T11:38:19.988Z,76.73
2023-03-13T11:39:44.669Z,76.48
2023-03-13T11:40:56.080Z,76.21
2023-03-13T11:42:06.387Z,75.65
2023-03-13T11:43:24.653Z,75.88
2023-03-13T11:44:37.840Z,76.19
2023-03-13T11:45:52.266Z,76.34
2023-03-13T11:47:09.167Z,76.36
2023-03-13T11:48:20.445Z,76.00
2023-03-13T11:49:55.973Z,75.80
2023-03-13T11:51:21.089Z,75.72
2023-03-13T11:52:38.787Z,75.53
2023-03-13T11:54:17.471Z,75.24
2023-03-13T11:55:45.565Z,75.17
2023-03-13T11:56:58.795Z,75.33
2023-03-13T11:58:19.420Z,75.38
2023-03-13T12:00:13.422Z,75.36
2023-03-13T12:01:22.737Z,74.81
2023-03-13T12:02:40.587Z,74.55
2023-03-13T12:03:50.101Z,74.42
2023-03-13T12:05:00.629Z,74.41
2023-03-13T12:06:05.087Z,74.55
2023-03-13T12:07:23.578Z,74.46
2023-03-13T12:08:34.992Z,74.04
2023-03-13T12:09:46.018Z,74.11
2023-03-13T12:11:02.845Z,73.88
2023-03-13T12:12:39.606Z,73.51
2023-03-13T12:13:51.807Z,73.36
2023-03-13T12:15:00.604Z,73.27
2023-03-13T12:16:09.776Z,73.27
2023-03-13T12:17:35.338Z,72.84
2023-03-13T12:18:43.440Z,72.57
2023-03-13T12:19:53.824Z,72.75
2023-03-13T12:21:07.298Z,72.82
2023-03-13T12:22:28.784Z,72.17
2023-03-13T12:23:40.400Z,71.96
2023-03-13T12:25:05.117Z,71.92
2023-03-13T12:26:18.293Z,71.39
2023-03-13T12:27:45.622Z,71.09
2023-03-13T12:29:10.962Z,71.11
2023-03-13T12:30:33.870Z,70.27
2023-03-13T12:32:00.217Z,69.75
2023-03-13T12:33:25.443Z,69.63
2023-03-13T12:34:41.242Z,69.66
2023-03-13T12:35:49.334Z,69.52
2023-03-13T12:37:08.397Z,69.05
2023-03-13T12:38:37.456Z,68.80
2023-03-13T12:39:50.010Z,68.73
2023-03-13T12:41:24.677Z,68.49
2023-03-13T12:42:44.871Z,68.62
2023-03-13T12:44:08.371Z,68.40
2023-03-13T12:45:18.657Z,68.35
2023-03-13T12:46:36.464Z,68.22
2023-03-13T12:48:00.941Z,67.94
2023-03-13T12:49:15.260Z,68.09
2023-03-13T12:50:26.478Z,67.93
2023-03-13T12:51:46.718Z,67.55
2023-03-13T12:53:26.696Z,67.77
2023-03-13T12:55:01.397Z,68.15
2023-03-13T12:56:15.502Z,67.75
2023-03-13T12:57:29.896Z,67.87
2023-03-13T12:58:45.052Z,67.66
2023-03-13T12:59:53.734Z,67.17
2023-03-13T13:00:58.894Z,67.64
2023-03-13T13:02:03.720Z,67.70
2023-03-13T13:03:29.721Z,67.17
2023-03-13T13:04:43.879Z,66.99
2023-03-13T13:06:04.812Z,67.26
2023-03-13T13:07:21.639Z,67.24
2023-03-13T13:08:26.349Z,66.67
2023-03-13T13:09:39.250Z,66.77
2023-03-13T13:10:42.275Z,66.62
2023-03-13T13:11:49.640Z,66.61
2023-03-13T13:13:15.107Z,66.60
2023-03-13T13:14:17.377Z,66.36
2023-03-13T13:15:25.070Z,66.28
2023-03-13T13:16:29.184Z,65.82
2023-03-13T13:17:49.584Z,66.28
2023-03-13T13:18:52.015Z,65.52
2023-03-13T13:19:56.390Z,65.16
2023-03-13T13:21:07.469Z,64.86
2023-03-13T13:22:39.225Z,64.80
2023-03-13T13:23:46.919Z,64.69
2023-03-13T13:24:51.339Z,64.69
2023-03-13T13:25:56.055Z,64.73
2023-03-13T13:26:58.313Z,64.49
2023-03-13T13:28:27.606Z,64.70
2023-03-13T13:29:29.940Z,64.36
2023-03-13T13:30:33.452Z,64.39
2023-03-13T13:31:47.887Z,64.29
2023-03-13T13:32:56.916Z,64.27
2023-03-13T13:33:59.206Z,64.22
2023-03-13T13:35:10.304Z,64.13
2023-03-13T13:36:12.547Z,63.71
2023-03-13T13:37:15.294Z,63.87
2023-03-13T13:38:20.039Z,64.06
2023-03-13T13:39:56.079Z,64.16
2023-03-13T13:41:10.477Z,64.07
2023-03-13T13:42:30.988Z,63.99
2023-03-13T13:43:40.496Z,64.08
2023-03-13T13:45:04.736Z,64.29
2023-03-13T13:46:25.368Z,64.18
2023-03-13T13:47:33.385Z,64.24
2023-03-13T13:48:43.062Z,64.07
2023-03-13T13:50:17.381Z,63.68
2023-03-13T13:51:23.772Z,63.45
2023-03-13T13:52:49.132Z,63.27
2023-03-13T13:54:24.115Z,62.94
2023-03-13T13:55:26.456Z,62.78
2023-03-13T13:56:28.749Z,63.11
2023-03-13T13:57:35.872Z,63.53
2023-03-13T13:58:44.157Z,63.40
2023-03-13T14:00:11.309Z,63.58
2023-03-13T14:01:16.773Z,63.15
2023-03-13T14:02:25.416Z,63.22
2023-03-13T14:03:29.814Z,63.22
2023-03-13T14:04:43.464Z,63.21
2023-03-13T14:05:49.986Z,63.00
2023-03-13T14:06:53.996Z,63.28
2023-03-13T14:08:03.169Z,63.15
2023-03-13T14:09:40.650Z,63.33
2023-03-13T14:10:46.964Z,63.42
2023-03-13T14:11:49.429Z,63.37
2023-03-13T14:12:54.417Z,63.59
2023-03-13T14:14:10.596Z,63.48
2023-03-13T14:15:14.849Z,63.57
2023-03-13T14:16:25.321Z,63.79
2023-03-13T14:17:28.012Z,64.13
2023-03-13T14:18:31.797Z,64.22
2023-03-13T14:19:41.040Z,64.28
2023-03-13T14:21:02.302Z,63.88
2023-03-13T14:22:08.547Z,63.82
2023-03-13T14:23:12.048Z,64.24
2023-03-13T14:24:16.209Z,64.05
2023-03-13T14:25:18.650Z,63.79
2023-03-13T14:26:23.812Z,64.32
2023-03-13T14:27:26.862Z,64.13
2023-03-13T14:28:30.008Z,64.35
2023-03-13T14:29:32.243Z,64.60
2023-03-13T14:30:34.521Z,64.69
2023-03-13T14:31:38.998Z,64.53
2023-03-13T14:32:42.056Z,64.49
2023-03-13T14:33:44.455Z,64.62
2023-03-13T14:34:46.774Z,64.73
2023-03-13T14:35:49.878Z,64.48
2023-03-13T14:37:01.458Z,64.85
2023-03-13T14:38:27.398Z,64.65
2023-03-13T14:39:32.723Z,64.87
2023-03-13T14:40:39.078Z,64.63
2023-03-13T14:41:46.977Z,64.63
2023-03-13T14:42:55.412Z,64.50
2023-03-13T14:44:15.170Z,64.50
2023-03-13T14:45:25.699Z,64.50
2023-03-13T14:46:27.967Z,64.48
2023-03-13T14:47:30.835Z,64.38
2023-03-13T14:48:34.227Z,64.59
2023-03-13T14:49:37.267Z,64.66
2023-03-13T14:50:39.750Z,64.83
2023-03-13T14:51:42.531Z,64.70
2023-03-13T14:52:49.121Z,64.71
2023-03-13T14:53:58.613Z,64.64